createdAt,value
2019-05-09T00:00:28.354Z,15.90
2019-05-09T00:01:33.666Z,12.93
2019-05-09T00:02:39.120Z,11.50
2019-05-09T00:03:44.259Z,18.10
2019-05-09T00:04:48.989Z,16.43
2019-05-09T00:05:54.187Z,18.00
2019-05-09T00:06:58.707Z,14.67
2019-05-09T00:08:03.592Z,15.53
2019-05-09T00:09:08.086Z,14.40
2019-05-09T00:10:14.239Z,16.00
2019-05-09T00:11:18.647Z,16.10
2019-05-09T00:12:23.499Z,15.90
2019-05-09T00:13:27.973Z,17.20
2019-05-09T00:14:34.233Z,22.57
2019-05-09T00:15:38.314Z,25.90
2019-05-09T00:16:43.881Z,20.37
2019-05-09T00:17:48.528Z,23.40
2019-05-09T00:18:54.141Z,23.47
2019-05-09T00:20:03.597Z,29.17
2019-05-09T00:21:15.293Z,25.30
2019-05-09T00:22:19.671Z,30.13
2019-05-09T00:23:24.077Z,33.70
2019-05-09T00:24:28.460Z,25.87
2019-05-09T00:25:34.012Z,26.33
2019-05-09T00:26:38.591Z,23.13
2019-05-09T00:27:43.529Z,28.70
2019-05-09T00:28:53.377Z,23.27
2019-05-09T00:29:57.543Z,21.50
2019-05-09T00:31:10.776Z,24.30
2019-05-09T00:32:34.254Z,31.23
2019-05-09T00:33:39.029Z,19.17
2019-05-09T00:35:04.033Z,23.33
2019-05-09T00:36:08.741Z,25.53
2019-05-09T00:37:13.587Z,29.43
2019-05-09T00:38:19.923Z,23.73
2019-05-09T00:39:24.266Z,22.40
2019-05-09T00:40:28.574Z,23.60
2019-05-09T00:41:33.154Z,23.67
2019-05-09T00:42:37.619Z,15.53
2019-05-09T00:43:45.160Z,20.13
2019-05-09T00:44:53.114Z,15.73
2019-05-09T00:46:16.334Z,16.07
2019-05-09T00:47:26.406Z,18.43
2019-05-09T00:48:43.918Z,13.90
2019-05-09T00:49:48.494Z,12.10
2019-05-09T00:50:54.424Z,11.53
2019-05-09T00:51:58.962Z,9.80
2019-05-09T00:53:03.356Z,12.37
2019-05-09T00:54:07.706Z,14.30
2019-05-09T00:55:13.227Z,14.03
2019-05-09T00:56:17.682Z,10.80
2019-05-09T00:57:34.192Z,12.57
2019-05-09T00:58:38.507Z,11.60
2019-05-09T00:59:44.609Z,12.27
2019-05-09T01:00:49.115Z,13.80
2019-05-09T01:01:54.374Z,14.90
2019-05-09T01:02:58.867Z,12.57
2019-05-09T01:04:06.230Z,11.33
2019-05-09T01:05:13.199Z,11.23
2019-05-09T01:06:17.560Z,12.53
2019-05-09T01:07:23.272Z,13.70
2019-05-09T01:08:27.727Z,10.93
2019-05-09T01:09:33.370Z,11.10
2019-05-09T01:10:37.911Z,14.03
2019-05-09T01:11:44.017Z,10.73
2019-05-09T01:12:48.548Z,10.90
2019-05-09T01:13:54.247Z,11.23
2019-05-09T01:14:58.891Z,10.70
2019-05-09T01:16:04.463Z,11.97
2019-05-09T01:17:09.152Z,10.30
2019-05-09T01:18:13.457Z,10.50
2019-05-09T01:19:17.800Z,11.47
2019-05-09T01:20:24.203Z,9.73
2019-05-09T01:21:28.384Z,11.77
2019-05-09T01:22:33.238Z,10.77
2019-05-09T01:23:37.688Z,11.47
2019-05-09T01:24:44.187Z,14.53
2019-05-09T01:25:48.077Z,11.37
2019-05-09T01:26:54.236Z,11.13
2019-05-09T01:27:58.456Z,10.43
2019-05-09T01:29:04.323Z,12.27
2019-05-09T01:30:09.515Z,14.07
2019-05-09T01:31:14.124Z,13.13
2019-05-09T01:32:26.012Z,15.10
2019-05-09T01:33:40.364Z,13.03
2019-05-09T01:34:44.644Z,12.67
2019-05-09T01:35:48.937Z,12.47
2019-05-09T01:37:10.482Z,14.83
2019-05-09T01:38:14.775Z,12.23
2019-05-09T01:39:19.079Z,16.17
2019-05-09T01:40:23.967Z,15.77
2019-05-09T01:41:33.416Z,15.40
2019-05-09T01:42:34.370Z,13.63
2019-05-09T01:43:39.036Z,13.43
2019-05-09T01:44:44.027Z,15.87
2019-05-09T01:45:48.531Z,14.93
2019-05-09T01:46:54.046Z,16.07
2019-05-09T01:47:58.515Z,16.23
2019-05-09T01:49:03.306Z,14.43
2019-05-09T01:50:08.156Z,12.90
2019-05-09T01:51:13.874Z,17.90
2019-05-09T01:52:18.454Z,15.20
2019-05-09T01:53:27.924Z,17.30
2019-05-09T01:54:33.258Z,13.67
2019-05-09T01:55:55.426Z,18.27
2019-05-09T01:56:59.771Z,14.67
2019-05-09T01:58:04.097Z,16.13
2019-05-09T01:59:14.784Z,20.90
2019-05-09T02:00:19.211Z,19.00
2019-05-09T02:01:24.238Z,22.50
2019-05-09T02:02:28.687Z,27.13
2019-05-09T02:03:33.784Z,23.87
2019-05-09T02:04:38.386Z,26.60
2019-05-09T02:05:44.387Z,26.47
2019-05-09T02:06:48.739Z,28.83
2019-05-09T02:07:54.186Z,25.87
2019-05-09T02:08:58.832Z,32.17
2019-05-09T02:10:03.512Z,28.83
2019-05-09T02:11:08.076Z,29.10
2019-05-09T02:12:14.220Z,28.67
2019-05-09T02:13:18.524Z,35.03
2019-05-09T02:14:45.125Z,33.87
2019-05-09T02:16:15.061Z,30.90
2019-05-09T02:17:28.037Z,38.37
2019-05-09T02:18:37.716Z,35.30
2019-05-09T02:19:43.910Z,37.17
2019-05-09T02:20:48.480Z,40.20
2019-05-09T02:21:53.179Z,36.50
2019-05-09T02:22:57.636Z,33.67
2019-05-09T02:24:03.253Z,39.30
2019-05-09T02:25:09.152Z,49.60
2019-05-09T02:26:13.747Z,42.57
2019-05-09T02:27:18.241Z,49.47
2019-05-09T02:28:23.463Z,46.10
2019-05-09T02:29:27.989Z,50.53
2019-05-09T02:30:35.776Z,47.73
2019-05-09T02:31:38.449Z,53.83
2019-05-09T02:32:44.986Z,50.97
2019-05-09T02:33:48.749Z,48.40
2019-05-09T02:34:54.703Z,50.97
2019-05-09T02:36:01.872Z,56.73
2019-05-09T02:37:05.121Z,53.40
2019-05-09T02:38:09.736Z,66.13
2019-05-09T02:39:14.209Z,58.13
2019-05-09T02:40:18.959Z,62.73
2019-05-09T02:41:23.475Z,55.00
2019-05-09T02:42:28.221Z,58.90
2019-05-09T02:43:32.674Z,60.43
2019-05-09T02:44:39.518Z,57.40
2019-05-09T02:45:52.783Z,69.93
2019-05-09T02:47:01.040Z,63.03
2019-05-09T02:48:05.434Z,65.67
2019-05-09T02:49:09.740Z,57.20
2019-05-09T02:50:14.440Z,68.40
2019-05-09T02:51:18.915Z,75.63
2019-05-09T02:52:23.290Z,68.60
2019-05-09T02:53:28.850Z,73.13
2019-05-09T02:54:33.530Z,64.20
2019-05-09T02:55:38.735Z,70.83
2019-05-09T02:56:43.196Z,58.07
2019-05-09T02:57:49.003Z,77.47
2019-05-09T02:59:18.685Z,72.60
2019-05-09T03:00:29.132Z,69.63
2019-05-09T03:01:58.679Z,71.37
2019-05-09T03:03:10.591Z,69.90
2019-05-09T03:04:14.916Z,60.37
2019-05-09T03:05:19.721Z,53.10
2019-05-09T03:06:24.185Z,73.63
2019-05-09T03:07:48.626Z,64.07
2019-05-09T03:08:52.733Z,51.23
2019-05-09T03:09:58.237Z,58.10
2019-05-09T03:11:02.805Z,47.77
2019-05-09T03:12:22.821Z,53.57
2019-05-09T03:13:13.308Z,44.77
2019-05-09T03:14:19.476Z,47.70
2019-05-09T03:15:23.703Z,46.60
2019-05-09T03:16:29.347Z,52.17
2019-05-09T03:17:33.889Z,44.33
2019-05-09T03:18:38.922Z,47.73
2019-05-09T03:19:43.833Z,53.30
2019-05-09T03:21:10.340Z,42.50
2019-05-09T03:22:18.852Z,50.93
2019-05-09T03:23:23.371Z,54.00
2019-05-09T03:24:28.774Z,53.83
2019-05-09T03:25:33.687Z,47.07
2019-05-09T03:26:40.221Z,56.20
2019-05-09T03:27:48.451Z,48.90
2019-05-09T03:29:10.831Z,51.37
2019-05-09T03:30:20.676Z,62.97
2019-05-09T03:31:25.017Z,59.63
2019-05-09T03:32:29.916Z,57.03
2019-05-09T03:33:35.725Z,57.83
2019-05-09T03:34:40.519Z,60.27
2019-05-09T03:35:44.834Z,62.10
2019-05-09T03:36:49.736Z,62.97
2019-05-09T03:38:08.237Z,67.90
2019-05-09T03:39:12.479Z,60.97
2019-05-09T03:40:18.024Z,59.10
2019-05-09T03:41:22.401Z,67.10
2019-05-09T03:42:38.132Z,68.73
2019-05-09T03:43:33.235Z,58.13
2019-05-09T03:44:38.554Z,61.43
2019-05-09T03:45:50.009Z,64.07
2019-05-09T03:47:08.401Z,71.87
2019-05-09T03:48:18.645Z,71.50
2019-05-09T03:49:23.028Z,72.30
2019-05-09T03:50:28.003Z,76.43
2019-05-09T03:51:32.465Z,66.93
2019-05-09T03:52:37.313Z,73.70
2019-05-09T03:53:41.692Z,72.60
2019-05-09T03:54:47.691Z,83.50
2019-05-09T03:55:53.863Z,75.40
2019-05-09T03:57:03.591Z,70.70
2019-05-09T03:58:11.343Z,86.17
2019-05-09T03:59:17.616Z,83.37
2019-05-09T04:00:22.016Z,84.87
2019-05-09T04:01:28.045Z,76.90
2019-05-09T04:02:32.533Z,77.17
2019-05-09T04:03:37.879Z,96.13
2019-05-09T04:04:42.308Z,88.37
2019-05-09T04:05:58.438Z,69.80
2019-05-09T04:06:52.729Z,82.10
2019-05-09T04:08:18.176Z,69.83
2019-05-09T04:09:22.611Z,86.80
2019-05-09T04:10:28.240Z,91.97
2019-05-09T04:11:32.799Z,110.77
2019-05-09T04:12:37.647Z,82.23
2019-05-09T04:13:54.739Z,98.00
2019-05-09T04:14:59.063Z,109.83
2019-05-09T04:16:03.611Z,95.93
2019-05-09T04:17:08.022Z,100.83
2019-05-09T04:18:12.524Z,91.80
2019-05-09T04:19:17.513Z,106.63
2019-05-09T04:20:22.212Z,122.63
2019-05-09T04:21:27.938Z,140.83
2019-05-09T04:22:32.517Z,87.63
2019-05-09T04:23:37.908Z,86.13
2019-05-09T04:24:42.474Z,81.40
2019-05-09T04:26:00.092Z,78.77
2019-05-09T04:27:20.655Z,77.40
2019-05-09T04:28:24.987Z,95.60
2019-05-09T04:29:29.265Z,83.97
2019-05-09T04:30:33.654Z,74.43
2019-05-09T04:31:38.484Z,76.27
2019-05-09T04:32:42.979Z,72.00
2019-05-09T04:33:47.380Z,84.93
2019-05-09T04:34:51.975Z,65.07
2019-05-09T04:35:57.908Z,75.50
2019-05-09T04:37:02.459Z,54.33
2019-05-09T04:38:07.460Z,54.37
2019-05-09T04:39:20.943Z,45.77
2019-05-09T04:40:19.085Z,43.93
2019-05-09T04:41:25.261Z,55.10
2019-05-09T04:42:29.428Z,45.13
2019-05-09T04:43:37.462Z,47.90
2019-05-09T04:44:49.919Z,43.93
2019-05-09T04:45:57.830Z,49.27
2019-05-09T04:47:03.666Z,47.77
2019-05-09T04:48:13.126Z,51.63
2019-05-09T04:49:18.540Z,49.77
2019-05-09T04:50:24.881Z,48.07
2019-05-09T04:51:28.716Z,57.40
2019-05-09T04:52:33.038Z,53.87
2019-05-09T04:53:39.745Z,50.90
2019-05-09T04:54:43.632Z,56.40
2019-05-09T04:55:48.036Z,53.97
2019-05-09T04:56:53.958Z,62.87
2019-05-09T04:58:00.263Z,55.83
2019-05-09T04:59:04.786Z,54.27
2019-05-09T05:00:10.948Z,60.13
2019-05-09T05:01:34.423Z,54.80
2019-05-09T05:02:42.864Z,52.83
2019-05-09T05:03:48.025Z,55.13
2019-05-09T05:04:52.411Z,68.27
2019-05-09T05:05:58.597Z,60.07
2019-05-09T05:07:02.700Z,62.47
2019-05-09T05:08:07.578Z,64.07
2019-05-09T05:09:12.012Z,70.43
2019-05-09T05:10:18.420Z,56.97
2019-05-09T05:11:22.491Z,63.57
2019-05-09T05:12:27.750Z,66.37
2019-05-09T05:13:32.418Z,61.97
2019-05-09T05:14:38.427Z,60.90
2019-05-09T05:15:43.065Z,69.27
2019-05-09T05:16:52.922Z,65.47
2019-05-09T05:17:53.455Z,64.40
2019-05-09T05:18:58.514Z,55.17
2019-05-09T05:20:03.937Z,64.77
2019-05-09T05:21:08.464Z,63.70
2019-05-09T05:22:21.214Z,67.80
2019-05-09T05:23:31.316Z,65.70
2019-05-09T05:24:40.732Z,60.20
2019-05-09T05:25:45.047Z,56.83
2019-05-09T05:26:49.405Z,61.80
2019-05-09T05:27:53.792Z,57.40
2019-05-09T05:28:58.776Z,65.77
2019-05-09T05:30:03.291Z,67.20
2019-05-09T05:31:07.838Z,61.40
2019-05-09T05:32:17.878Z,66.67
2019-05-09T05:33:30.740Z,65.97
2019-05-09T05:34:44.319Z,63.37
2019-05-09T05:35:52.587Z,57.13
2019-05-09T05:36:58.212Z,58.23
2019-05-09T05:38:02.736Z,57.13
2019-05-09T05:39:08.183Z,58.07
2019-05-09T05:40:12.876Z,62.07
2019-05-09T05:41:18.307Z,63.43
2019-05-09T05:42:22.890Z,58.57
2019-05-09T05:43:40.839Z,60.93
2019-05-09T05:44:33.270Z,56.80
2019-05-09T05:45:47.819Z,64.13
2019-05-09T05:47:14.688Z,57.70
2019-05-09T05:48:23.525Z,61.60
2019-05-09T05:49:28.059Z,55.27
2019-05-09T05:50:32.416Z,51.27
2019-05-09T05:51:57.680Z,56.50
2019-05-09T05:53:01.827Z,56.53
2019-05-09T05:54:07.807Z,57.03
2019-05-09T05:55:12.509Z,49.57
2019-05-09T05:56:17.593Z,46.97
2019-05-09T05:57:22.255Z,54.30
2019-05-09T05:58:28.199Z,49.17
2019-05-09T05:59:32.719Z,53.20
2019-05-09T06:00:37.745Z,53.47
2019-05-09T06:01:42.302Z,54.17
2019-05-09T06:02:47.880Z,55.27
2019-05-09T06:03:52.457Z,54.30
2019-05-09T06:04:58.961Z,59.47
2019-05-09T06:06:03.548Z,56.23
2019-05-09T06:07:08.301Z,56.87
2019-05-09T06:08:12.715Z,58.70
2019-05-09T06:09:19.054Z,60.80
2019-05-09T06:10:23.173Z,56.00
2019-05-09T06:11:28.251Z,55.37
2019-05-09T06:12:32.679Z,52.03
2019-05-09T06:13:37.989Z,58.83
2019-05-09T06:14:42.599Z,57.23
2019-05-09T06:15:48.146Z,65.70
2019-05-09T06:16:52.817Z,67.33
2019-05-09T06:17:57.895Z,59.13
2019-05-09T06:19:02.711Z,62.97
2019-05-09T06:20:09.017Z,50.97
2019-05-09T06:21:13.196Z,58.23
2019-05-09T06:22:18.326Z,54.47
2019-05-09T06:23:22.954Z,60.97
2019-05-09T06:24:28.205Z,54.77
2019-05-09T06:25:32.962Z,59.80
2019-05-09T06:26:37.394Z,56.47
2019-05-09T06:27:42.460Z,55.17
2019-05-09T06:28:48.110Z,54.47
2019-05-09T06:29:52.730Z,53.27
2019-05-09T06:30:58.495Z,56.87
2019-05-09T06:32:03.022Z,59.33
2019-05-09T06:33:08.960Z,51.17
2019-05-09T06:34:13.577Z,56.17
2019-05-09T06:35:24.052Z,61.77
2019-05-09T06:36:28.530Z,59.13
2019-05-09T06:37:32.937Z,54.23
2019-05-09T06:38:37.763Z,53.63
2019-05-09T06:39:42.255Z,52.80
2019-05-09T06:40:47.567Z,53.13
2019-05-09T06:41:52.087Z,52.97
2019-05-09T06:42:59.000Z,52.53
2019-05-09T06:44:16.450Z,47.27
2019-05-09T06:45:43.119Z,47.83
2019-05-09T06:46:52.472Z,49.87
2019-05-09T06:47:58.297Z,50.53
2019-05-09T06:49:21.483Z,47.50
2019-05-09T06:50:15.652Z,47.80
2019-05-09T06:51:21.303Z,55.97
2019-05-09T06:52:28.039Z,61.57
2019-05-09T06:53:31.893Z,55.10
2019-05-09T06:54:36.343Z,60.63
2019-05-09T06:55:40.745Z,62.03
2019-05-09T06:56:47.429Z,58.20
2019-05-09T06:57:51.114Z,49.43
2019-05-09T06:58:55.569Z,53.83
2019-05-09T07:00:01.995Z,49.33
2019-05-09T07:01:18.250Z,51.90
2019-05-09T07:02:28.616Z,45.13
2019-05-09T07:03:33.271Z,49.20
2019-05-09T07:04:47.594Z,45.70
2019-05-09T07:06:23.465Z,41.33
2019-05-09T07:07:38.991Z,45.57
2019-05-09T07:08:50.333Z,41.57
2019-05-09T07:09:58.571Z,44.47
2019-05-09T07:11:02.749Z,47.27
2019-05-09T07:12:07.939Z,45.33
2019-05-09T07:13:12.488Z,46.53
2019-05-09T07:14:37.733Z,49.73
2019-05-09T07:15:39.797Z,48.40
2019-05-09T07:16:44.199Z,49.73
2019-05-09T07:17:48.506Z,44.60
2019-05-09T07:18:52.830Z,49.13
2019-05-09T07:19:58.991Z,51.27
2019-05-09T07:21:03.227Z,45.80
2019-05-09T07:22:18.445Z,44.80
2019-05-09T07:23:23.100Z,50.03
2019-05-09T07:24:28.704Z,46.13
2019-05-09T07:25:52.206Z,47.77
2019-05-09T07:26:58.385Z,49.13
2019-05-09T07:28:02.700Z,49.90
2019-05-09T07:29:07.533Z,50.13
2019-05-09T07:30:22.224Z,47.10
2019-05-09T07:31:42.825Z,49.73
2019-05-09T07:32:54.075Z,52.30
2019-05-09T07:34:02.105Z,53.43
2019-05-09T07:35:08.839Z,50.43
2019-05-09T07:36:18.724Z,49.80
2019-05-09T07:37:22.711Z,48.27
2019-05-09T07:38:31.243Z,50.83
2019-05-09T07:39:37.847Z,44.63
2019-05-09T07:40:41.750Z,48.77
2019-05-09T07:41:48.908Z,48.53
2019-05-09T07:42:53.216Z,46.90
2019-05-09T07:43:58.258Z,45.13
2019-05-09T07:45:02.965Z,46.50
2019-05-09T07:46:11.911Z,46.43
2019-05-09T07:47:17.774Z,47.50
2019-05-09T07:48:22.441Z,45.20
2019-05-09T07:49:28.369Z,47.40
2019-05-09T07:50:32.840Z,46.93
2019-05-09T07:51:37.418Z,45.70
2019-05-09T07:52:41.980Z,47.97
2019-05-09T07:53:48.223Z,53.97
2019-05-09T07:54:52.500Z,50.93
2019-05-09T07:55:58.222Z,45.90
2019-05-09T07:57:02.803Z,44.47
2019-05-09T07:58:07.996Z,46.83
2019-05-09T07:59:12.839Z,46.37
2019-05-09T08:00:21.306Z,46.10
2019-05-09T08:01:27.872Z,43.73
2019-05-09T08:02:31.768Z,41.73
2019-05-09T08:03:38.469Z,40.83
2019-05-09T08:04:42.357Z,42.73
2019-05-09T08:05:47.701Z,45.80
2019-05-09T08:06:52.088Z,42.00
2019-05-09T08:07:58.657Z,43.80
2019-05-09T08:09:02.988Z,41.50
2019-05-09T08:10:08.780Z,45.17
2019-05-09T08:11:13.556Z,42.83
2019-05-09T08:12:18.115Z,37.30
2019-05-09T08:13:22.584Z,40.63
2019-05-09T08:14:28.137Z,42.10
2019-05-09T08:15:32.841Z,41.50
2019-05-09T08:16:37.910Z,41.87
2019-05-09T08:17:42.528Z,37.90
2019-05-09T08:18:48.338Z,36.77
2019-05-09T08:19:52.945Z,41.83
2019-05-09T08:20:57.960Z,34.70
2019-05-09T08:22:02.496Z,37.00
2019-05-09T08:23:08.658Z,36.97
2019-05-09T08:24:12.968Z,31.90
2019-05-09T08:25:18.345Z,32.70
2019-05-09T08:26:22.889Z,37.40
2019-05-09T08:27:30.048Z,33.80
2019-05-09T08:28:33.463Z,33.03
2019-05-09T08:29:38.723Z,36.53
2019-05-09T08:30:43.506Z,33.03
2019-05-09T08:31:48.568Z,30.67
2019-05-09T08:32:53.292Z,34.47
2019-05-09T08:33:59.339Z,33.53
2019-05-09T08:35:04.453Z,34.20
2019-05-09T08:36:09.109Z,34.60
2019-05-09T08:37:13.616Z,35.33
2019-05-09T08:38:18.246Z,32.73
2019-05-09T08:39:22.798Z,35.47
2019-05-09T08:40:28.479Z,33.73
2019-05-09T08:41:33.059Z,32.80
2019-05-09T08:42:37.949Z,34.50
2019-05-09T08:43:42.874Z,31.77
2019-05-09T08:44:48.209Z,32.60
2019-05-09T08:45:52.689Z,32.63
2019-05-09T08:46:57.468Z,28.80
2019-05-09T08:48:01.961Z,30.23
2019-05-09T08:49:08.189Z,31.50
2019-05-09T08:50:21.461Z,28.80
2019-05-09T08:51:47.311Z,30.20
2019-05-09T08:52:41.874Z,31.13
2019-05-09T08:53:48.188Z,30.80
2019-05-09T08:54:54.942Z,30.07
2019-05-09T08:55:59.314Z,28.60
2019-05-09T08:57:03.958Z,29.63
2019-05-09T08:58:08.425Z,29.30
2019-05-09T08:59:12.831Z,32.70
2019-05-09T09:00:18.893Z,33.03
2019-05-09T09:01:43.070Z,29.50
2019-05-09T09:02:29.697Z,30.77
2019-05-09T09:03:34.060Z,30.63
2019-05-09T09:04:38.659Z,28.20
2019-05-09T09:05:43.534Z,33.73
2019-05-09T09:06:48.333Z,29.80
2019-05-09T09:07:52.889Z,28.23
2019-05-09T09:08:57.648Z,34.13
2019-05-09T09:10:02.179Z,28.87
2019-05-09T09:11:08.562Z,29.07
2019-05-09T09:12:25.971Z,27.00
2019-05-09T09:13:18.728Z,29.17
2019-05-09T09:14:23.145Z,29.63
2019-05-09T09:15:50.022Z,30.30
2019-05-09T09:16:33.585Z,27.97
2019-05-09T09:17:38.750Z,29.47
2019-05-09T09:18:43.328Z,29.00
2019-05-09T09:19:48.040Z,27.40
2019-05-09T09:20:52.564Z,25.17
2019-05-09T09:22:00.391Z,26.83
2019-05-09T09:23:03.006Z,23.70
2019-05-09T09:24:08.716Z,22.60
2019-05-09T09:25:13.608Z,25.47
2019-05-09T09:26:18.427Z,25.73
2019-05-09T09:27:24.294Z,25.87
2019-05-09T09:28:28.606Z,26.97
2019-05-09T09:29:33.052Z,22.50
2019-05-09T09:30:38.591Z,22.80
2019-05-09T09:31:43.557Z,22.80
2019-05-09T09:32:48.075Z,22.20
2019-05-09T09:33:52.520Z,25.60
2019-05-09T09:34:58.766Z,22.83
2019-05-09T09:36:03.084Z,23.07
2019-05-09T09:37:11.236Z,22.83
2019-05-09T09:38:14.669Z,22.77
2019-05-09T09:39:19.180Z,21.67
2019-05-09T09:40:23.696Z,20.33
2019-05-09T09:41:28.937Z,18.83
2019-05-09T09:42:33.361Z,20.80
2019-05-09T09:43:38.506Z,18.23
2019-05-09T09:44:43.109Z,21.50
2019-05-09T09:45:48.200Z,20.20
2019-05-09T09:46:53.597Z,19.27
2019-05-09T09:47:59.094Z,17.23
2019-05-09T09:49:03.835Z,16.77
2019-05-09T09:50:08.910Z,17.27
2019-05-09T09:51:13.496Z,17.50
2019-05-09T09:52:18.755Z,17.67
2019-05-09T09:53:23.412Z,18.23
2019-05-09T09:54:28.216Z,17.17
2019-05-09T09:55:32.832Z,14.93
2019-05-09T09:56:38.666Z,15.60
2019-05-09T09:57:43.326Z,16.70
2019-05-09T09:58:54.608Z,15.67
2019-05-09T10:00:18.070Z,16.07
2019-05-09T10:01:28.692Z,15.93
2019-05-09T10:02:37.346Z,15.60
2019-05-09T10:03:41.668Z,15.30
2019-05-09T10:04:46.137Z,13.87
2019-05-09T10:05:50.499Z,15.13
2019-05-09T10:06:54.831Z,15.63
2019-05-09T10:07:59.144Z,14.83
2019-05-09T10:09:05.409Z,11.77
2019-05-09T10:10:12.443Z,10.83
2019-05-09T10:11:17.983Z,9.03
2019-05-09T10:12:22.517Z,9.33
2019-05-09T10:13:29.835Z,7.97
2019-05-09T10:14:39.596Z,9.57
2019-05-09T10:15:54.445Z,9.40
2019-05-09T10:17:24.121Z,8.27
2019-05-09T10:18:40.484Z,10.30
2019-05-09T10:19:49.314Z,9.77
2019-05-09T10:20:58.554Z,10.80
2019-05-09T10:22:03.860Z,9.87
2019-05-09T10:23:17.592Z,8.73
2019-05-09T10:24:14.303Z,12.20
2019-05-09T10:25:18.658Z,11.73
2019-05-09T10:26:22.975Z,9.27
2019-05-09T10:27:28.411Z,15.23
2019-05-09T10:28:32.996Z,8.83
2019-05-09T10:29:38.770Z,11.23
2019-05-09T10:30:44.527Z,10.70
2019-05-09T10:31:49.246Z,10.53
2019-05-09T10:32:53.614Z,13.97
2019-05-09T10:33:58.200Z,11.23
2019-05-09T10:35:02.684Z,10.97
2019-05-09T10:36:08.553Z,10.53
2019-05-09T10:37:13.324Z,10.53
2019-05-09T10:38:18.531Z,10.47
2019-05-09T10:39:22.983Z,12.17
2019-05-09T10:40:28.139Z,9.43
2019-05-09T10:41:32.705Z,13.33
2019-05-09T10:42:50.923Z,9.43
2019-05-09T10:44:10.796Z,9.93
2019-05-09T10:45:24.068Z,10.73
2019-05-09T10:46:51.414Z,11.07
2019-05-09T10:47:39.852Z,12.17
2019-05-09T10:48:49.490Z,11.63
2019-05-09T10:49:53.764Z,9.70
2019-05-09T10:51:04.144Z,12.30
2019-05-09T10:52:05.164Z,9.73
2019-05-09T10:53:09.473Z,9.87
2019-05-09T10:54:13.875Z,10.63
2019-05-09T10:55:18.340Z,8.50
2019-05-09T10:56:22.705Z,9.97
2019-05-09T10:57:31.636Z,8.93
2019-05-09T10:58:33.212Z,7.70
2019-05-09T10:59:37.743Z,9.10
2019-05-09T11:00:42.197Z,8.27
2019-05-09T11:01:49.382Z,8.53
2019-05-09T11:02:52.861Z,9.77
2019-05-09T11:03:58.964Z,9.77
2019-05-09T11:05:03.235Z,8.13
2019-05-09T11:06:08.532Z,8.90
2019-05-09T11:07:13.375Z,9.23
2019-05-09T11:08:18.492Z,7.13
2019-05-09T11:09:23.116Z,6.80
2019-05-09T11:10:30.133Z,10.20
2019-05-09T11:11:33.629Z,9.63
2019-05-09T11:12:38.002Z,7.70
2019-05-09T11:13:42.410Z,8.27
2019-05-09T11:14:48.394Z,6.10
2019-05-09T11:15:52.822Z,7.33
2019-05-09T11:17:07.751Z,6.20
2019-05-09T11:18:03.264Z,7.57
2019-05-09T11:19:08.173Z,7.63
2019-05-09T11:20:12.840Z,8.37
2019-05-09T11:21:19.208Z,7.63
2019-05-09T11:22:23.641Z,6.03
2019-05-09T11:23:29.234Z,4.80
2019-05-09T11:24:45.446Z,5.93
2019-05-09T11:25:39.885Z,5.90
2019-05-09T11:26:44.340Z,7.07
2019-05-09T11:28:06.762Z,6.70
2019-05-09T11:28:54.860Z,5.87
2019-05-09T11:29:59.176Z,5.67
2019-05-09T11:31:03.565Z,7.23
2019-05-09T11:32:08.152Z,6.00
2019-05-09T11:33:12.613Z,5.25
2019-05-09T11:34:18.834Z,4.03
2019-05-09T11:35:23.026Z,5.00
2019-05-09T11:36:27.616Z,4.30
2019-05-09T11:37:32.008Z,4.62
2019-05-09T11:38:43.156Z,5.55
2019-05-09T11:39:42.438Z,5.30
2019-05-09T11:40:48.341Z,4.70
2019-05-09T11:41:52.838Z,3.72
2019-05-09T11:42:57.169Z,3.75
2019-05-09T11:44:01.478Z,5.97
2019-05-09T11:45:07.653Z,5.35
2019-05-09T11:46:12.228Z,2.12
2019-05-09T11:47:32.318Z,6.67
2019-05-09T11:48:22.580Z,4.87
2019-05-09T11:49:29.357Z,4.25
2019-05-09T11:50:32.992Z,3.55
2019-05-09T11:51:37.409Z,5.58
2019-05-09T11:52:41.864Z,3.87
2019-05-09T11:53:48.679Z,5.95
2019-05-09T11:54:52.359Z,2.95
2019-05-09T11:55:57.860Z,3.65
2019-05-09T11:57:02.253Z,2.95
2019-05-09T11:58:08.358Z,3.67
2019-05-09T11:59:12.669Z,2.95
2019-05-09T12:00:18.001Z,2.80
2019-05-09T12:01:22.670Z,4.08
2019-05-09T12:02:27.927Z,4.50
2019-05-09T12:03:32.564Z,5.17
2019-05-09T12:04:37.993Z,2.40
2019-05-09T12:05:42.581Z,3.40
2019-05-09T12:06:49.135Z,2.20
2019-05-09T12:07:53.002Z,4.25
2019-05-09T12:08:58.851Z,4.95
2019-05-09T12:10:04.637Z,3.15
2019-05-09T12:11:08.975Z,3.08
2019-05-09T12:12:13.342Z,2.27
2019-05-09T12:13:18.595Z,2.33
2019-05-09T12:14:23.372Z,2.08
2019-05-09T12:15:29.070Z,3.98
2019-05-09T12:16:33.621Z,3.05
2019-05-09T12:17:52.944Z,3.85
2019-05-09T12:18:44.235Z,2.90
2019-05-09T12:19:49.054Z,3.27
2019-05-09T12:20:53.442Z,4.03
2019-05-09T12:21:58.370Z,4.72
2019-05-09T12:23:02.952Z,1.30
2019-05-09T12:24:09.082Z,2.62
2019-05-09T12:25:13.848Z,3.22
2019-05-09T12:26:18.250Z,2.40
2019-05-09T12:27:22.665Z,4.40
2019-05-09T12:28:26.977Z,3.98
2019-05-09T12:29:31.365Z,4.75
2019-05-09T12:30:37.900Z,1.85
2019-05-09T12:31:41.919Z,2.95
2019-05-09T12:32:46.235Z,2.35
2019-05-09T12:33:50.616Z,4.12
2019-05-09T12:34:57.561Z,4.22
2019-05-09T12:36:00.994Z,3.17
2019-05-09T12:37:05.424Z,2.75
2019-05-09T12:38:09.804Z,4.80
2019-05-09T12:39:14.118Z,7.20
2019-05-09T12:40:20.157Z,3.00
2019-05-09T12:41:24.678Z,2.47
2019-05-09T12:42:29.561Z,3.30
2019-05-09T12:43:34.327Z,3.33
2019-05-09T12:44:38.664Z,2.05
2019-05-09T12:45:43.072Z,3.08
2019-05-09T12:46:48.763Z,2.45
2019-05-09T12:48:06.075Z,2.55
2019-05-09T12:48:59.583Z,1.60
2019-05-09T12:50:04.352Z,3.75
2019-05-09T12:51:08.718Z,2.95
2019-05-09T12:52:13.108Z,5.20
2019-05-09T12:53:18.961Z,3.08
2019-05-09T12:54:23.429Z,6.45
2019-05-09T12:55:27.755Z,4.22
2019-05-09T12:56:32.125Z,7.08
2019-05-09T12:57:38.691Z,4.55
2019-05-09T12:58:42.496Z,2.55
2019-05-09T12:59:52.351Z,5.80
2019-05-09T13:00:52.808Z,6.72
2019-05-09T13:01:58.085Z,2.75
2019-05-09T13:03:02.659Z,3.92
2019-05-09T13:04:09.513Z,5.70
2019-05-09T13:05:13.181Z,4.25
2019-05-09T13:06:20.069Z,25.57
2019-05-09T13:07:23.741Z,3.30
2019-05-09T13:08:28.152Z,3.33
2019-05-09T13:09:32.456Z,2.92
2019-05-09T13:10:37.858Z,3.27
2019-05-09T13:11:42.700Z,2.62
2019-05-09T13:12:48.502Z,3.90
2019-05-09T13:13:53.143Z,7.90
2019-05-09T13:14:57.986Z,4.37
2019-05-09T13:16:14.202Z,2.47
2019-05-09T13:17:31.066Z,4.17
2019-05-09T13:18:53.413Z,2.08
2019-05-09T13:19:58.572Z,5.35
2019-05-09T13:21:02.994Z,5.00
2019-05-09T13:22:08.105Z,3.33
2019-05-09T13:23:12.899Z,6.35
2019-05-09T13:24:19.549Z,4.67
2019-05-09T13:25:23.392Z,5.72
2019-05-09T13:26:28.849Z,1.85
2019-05-09T13:27:33.580Z,3.22
2019-05-09T13:28:37.973Z,3.25
2019-05-09T13:29:42.611Z,4.83
2019-05-09T13:30:48.863Z,3.33
2019-05-09T13:31:53.120Z,2.87
2019-05-09T13:32:57.526Z,2.90
2019-05-09T13:34:02.005Z,9.93
2019-05-09T13:35:06.762Z,13.55
2019-05-09T13:36:11.251Z,3.25
2019-05-09T13:37:15.612Z,2.80
2019-05-09T13:38:20.162Z,2.05
2019-05-09T13:39:24.641Z,3.83
2019-05-09T13:40:29.307Z,3.00
2019-05-09T13:41:33.848Z,3.15
2019-05-09T13:42:39.509Z,7.10
2019-05-09T13:43:47.475Z,2.42
2019-05-09T13:44:50.629Z,3.40
2019-05-09T13:45:54.988Z,3.62
2019-05-09T13:46:59.291Z,5.15
2019-05-09T13:48:03.633Z,4.80
2019-05-09T13:49:12.566Z,2.72
2019-05-09T13:50:14.206Z,5.70
2019-05-09T13:51:18.744Z,3.77
2019-05-09T13:52:23.304Z,3.85
2019-05-09T13:53:28.452Z,4.37
2019-05-09T13:54:32.855Z,3.02
2019-05-09T13:55:38.087Z,3.80
2019-05-09T13:56:42.687Z,4.03
2019-05-09T13:57:48.603Z,3.53
2019-05-09T13:58:53.254Z,4.93
2019-05-09T13:59:58.667Z,6.00
2019-05-09T14:01:03.736Z,5.23
2019-05-09T14:02:08.205Z,4.30
2019-05-09T14:03:12.512Z,3.83
2019-05-09T14:04:16.990Z,3.23
2019-05-09T14:05:21.400Z,4.30
2019-05-09T14:06:27.764Z,3.13
2019-05-09T14:07:31.791Z,3.77
2019-05-09T14:08:38.776Z,3.13
2019-05-09T14:09:42.106Z,3.37
2019-05-09T14:10:48.330Z,2.60
2019-05-09T14:11:52.519Z,2.50
2019-05-09T14:13:07.055Z,4.93
2019-05-09T14:14:03.025Z,5.10
2019-05-09T14:15:08.444Z,5.30
2019-05-09T14:16:19.930Z,4.23
2019-05-09T14:17:40.568Z,4.80
2019-05-09T14:18:26.232Z,4.63
2019-05-09T14:19:40.571Z,9.80
2019-05-09T14:20:37.730Z,7.70
2019-05-09T14:21:42.309Z,6.40